Time;durP1;ratioP1;P1;durP2;ratioP2;P2;SDS_P1;SDS_P2;PMS_P1;PMS_P2;Temp;Humidity;BMP_temperature;BMP_pressure;BME280_temperature;BME280_humidity;BME280_pressure;Samples;Min_cycle;Max_cycle;Signal;HPM_P1;HPM_P2
2023/09/23 00:01:32;;;;;;;12.00;10.70;;;19.70;94.90;;;;;;6124822;23;20140;-83
2023/09/23 00:04:01;;;;;;;11.75;10.55;;;19.70;94.90;;;;;;6150558;23;20167;-84
2023/09/23 00:06:27;;;;;;;12.13;10.40;;;19.60;95.00;;;;;;6201072;23;20489;-82
2023/09/23 00:08:54;;;;;;;11.65;10.45;;;19.60;94.90;;;;;;6149318;23;20158;-81
2023/09/23 00:11:19;;;;;;;12.70;10.48;;;19.60;95.00;;;;;;6124874;23;20175;-83
2023/09/23 00:13:45;;;;;;;12.60;10.70;;;19.70;94.90;;;;;;6124164;23;20151;-84
2023/09/23 00:16:11;;;;;;;12.50;10.70;;;19.60;94.90;;;;;;6125445;23;20216;-85
2023/09/23 00:18:38;;;;;;;12.40;11.10;;;19.70;95.00;;;;;;6151974;23;20168;-84
2023/09/23 00:21:05;;;;;;;11.70;10.30;;;19.60;94.90;;;;;;6178114;23;20159;-81
2023/09/23 00:23:32;;;;;;;12.38;10.45;;;19.70;95.00;;;;;;6151910;23;20582;-80
2023/09/23 00:25:59;;;;;;;11.57;10.38;;;19.70;95.00;;;;;;6101376;23;20155;-81
2023/09/23 00:28:30;;;;;;;12.15;10.45;;;19.60;94.90;;;;;;6151433;22;20654;-82
2023/09/23 00:31:06;;;;;;;11.95;10.75;;;19.70;94.90;;;;;;6126939;23;20269;-84
2023/09/23 00:33:36;;;;;;;12.02;10.63;;;19.60;94.90;;;;;;6151706;23;20131;-81
2023/09/23 00:36:01;;;;;;;11.75;10.00;;;19.60;95.30;;;;;;6126142;23;20132;-82
2023/09/23 00:38:27;;;;;;;11.30;10.07;;;19.60;95.00;;;;;;6101289;23;20154;-83
2023/09/23 00:40:55;;;;;;;11.88;10.27;;;19.60;94.90;;;;;;6151708;23;20140;-82
2023/09/23 00:43:23;;;;;;;12.07;10.77;;;19.60;95.00;;;;;;6151306;23;20555;-83
2023/09/23 00:45:49;;;;;;;11.25;10.05;;;19.60;95.00;;;;;;6126097;23;20124;-83
2023/09/23 00:48:16;;;;;;;11.48;10.27;;;19.60;94.90;;;;;;6077312;23;20186;-82
2023/09/23 00:50:44;;;;;;;12.10;10.77;;;19.60;94.90;;;;;;6101729;23;20147;-83
2023/09/23 00:53:10;;;;;;;11.73;10.48;;;19.60;95.00;;;;;;6151343;23;20181;-81
2023/09/23 00:55:42;;;;;;;12.15;10.55;;;19.60;95.00;;;;;;6151704;23;20140;-83
2023/09/23 00:58:14;;;;;;;12.30;11.00;;;19.60;95.00;;;;;;6151536;23;20575;-83
2023/09/23 01:00:41;;;;;;;12.13;10.90;;;19.60;95.00;;;;;;6101808;23;20147;-82
2023/09/23 01:03:07;;;;;;;11.88;10.57;;;19.60;94.90;;;;;;6151632;23;20132;-80
2023/09/23 01:05:34;;;;;;;12.45;10.73;;;19.60;94.90;;;;;;6151548;23;20136;-82
2023/09/23 01:08:17;;;;;;;11.80;10.60;;;19.60;94.90;;;;;;6124741;23;20139;-82
2023/09/23 01:10:43;;;;;;;12.32;10.48;;;19.60;94.90;;;;;;6151575;23;20498;-84
2023/09/23 01:13:19;;;;;;;11.82;10.63;;;19.60;94.90;;;;;;6101271;23;20159;-81
2023/09/23 01:15:46;;;;;;;11.60;10.40;;;19.60;95.00;;;;;;6151480;23;20470;-82
2023/09/23 01:18:13;;;;;;;11.98;10.65;;;19.60;94.90;;;;;;6151893;23;20140;-82
2023/09/23 01:20:41;;;;;;;11.48;10.30;;;19.60;94.90;;;;;;6151445;23;20140;-81
2023/09/23 01:23:10;;;;;;;11.25;10.13;;;19.60;94.90;;;;;;6125946;23;20128;-83
2023/09/23 01:25:37;;;;;;;12.18;10.88;;;19.60;94.80;;;;;;6151570;23;20143;-84
2023/09/23 01:28:05;;;;;;;12.23;10.93;;;19.60;94.90;;;;;;6125159;22;20235;-83
2023/09/23 01:30:31;;;;;;;12.40;10.85;;;19.60;94.70;;;;;;6102479;23;20135;-83
2023/09/23 01:32:57;;;;;;;11.57;10.35;;;19.60;94.80;;;;;;6151382;23;20589;-83
2023/09/23 01:35:23;;;;;;;12.00;10.63;;;19.60;94.70;;;;;;6125355;23;20159;-83
2023/09/23 01:37:50;;;;;;;11.43;10.30;;;19.70;94.90;;;;;;6125404;23;20178;-84
2023/09/23 01:40:17;;;;;;;11.55;10.38;;;19.60;94.90;;;;;;6125185;23;20155;-81
2023/09/23 01:42:44;;;;;;;11.50;10.30;;;19.70;95.00;;;;;;6151234;23;20139;-81
2023/09/23 01:45:12;;;;;;;12.15;10.85;;;19.60;94.90;;;;;;6151857;23;20140;-80
2023/09/23 01:47:38;;;;;;;12.30;10.23;;;19.60;94.80;;;;;;6151631;23;20167;-83
2023/09/23 01:50:04;;;;;;;12.27;10.98;;;19.70;94.80;;;;;;6151124;23;20139;-84
2023/09/23 01:52:30;;;;;;;11.15;10.05;;;19.70;94.80;;;;;;6151148;23;20163;-84
2023/09/23 01:54:56;;;;;;;12.10;10.50;;;19.60;94.80;;;;;;6125534;23;20213;-83
2023/09/23 01:57:22;;;;;;;11.05;9.95;;;19.60;95.10;;;;;;6151652;23;20139;-80
2023/09/23 01:59:48;;;;;;;11.60;10.00;;;19.60;94.80;;;;;;6151403;22;20136;-81
2023/09/23 02:02:17;;;;;;;12.30;11.00;;;19.60;94.80;;;;;;6151007;23;20563;-83
2023/09/23 02:04:43;;;;;;;11.85;10.40;;;19.60;94.80;;;;;;6126052;23;20151;-81
2023/09/23 02:07:10;;;;;;;11.60;10.50;;;19.60;94.70;;;;;;6151154;23;20139;-83
2023/09/23 02:09:38;;;;;;;12.23;10.35;;;19.60;94.90;;;;;;6150547;23;20219;-84
2023/09/23 02:12:04;;;;;;;11.25;10.15;;;19.60;94.80;;;;;;6151462;23;20167;-82
2023/09/23 02:14:30;;;;;;;12.50;11.20;;;19.60;94.80;;;;;;6125106;23;20470;-84
2023/09/23 02:16:57;;;;;;;12.02;10.82;;;19.60;94.90;;;;;;6125431;23;20131;-81
2023/09/23 02:19:24;;;;;;;12.68;10.65;;;19.60;94.80;;;;;;6151305;23;20210;-81
2023/09/23 02:21:50;;;;;;;11.70;10.43;;;19.60;94.80;;;;;;6100858;23;20147;-80
2023/09/23 02:24:16;;;;;;;11.45;10.25;;;19.60;95.00;;;;;;6151711;23;20147;-83
2023/09/23 02:26:42;;;;;;;11.73;10.52;;;19.60;94.80;;;;;;6151089;22;20174;-82
2023/09/23 02:29:09;;;;;;;10.80;9.73;;;19.60;94.80;;;;;;6151288;23;20135;-82
2023/09/23 02:31:36;;;;;;;12.40;11.10;;;19.60;94.60;;;;;;6151214;22;20168;-85
2023/09/23 02:34:02;;;;;;;12.23;10.75;;;19.60;94.80;;;;;;6124805;23;20155;-81
2023/09/23 02:36:28;;;;;;;12.50;10.55;;;19.60;94.90;;;;;;6151589;23;20223;-80
2023/09/23 02:38:54;;;;;;;11.43;10.23;;;19.60;94.90;;;;;;6150438;23;20131;-85
2023/09/23 02:41:19;;;;;;;12.75;11.10;;;19.60;95.20;;;;;;6125157;23;20143;-83
2023/09/23 02:43:45;;;;;;;12.00;10.70;;;19.60;94.90;;;;;;6151343;23;20159;-82
2023/09/23 02:46:11;;;;;;;11.35;10.15;;;19.60;94.90;;;;;;6151047;23;20139;-82
2023/09/23 02:48:37;;;;;;;12.48;11.18;;;19.70;94.90;;;;;;6150898;23;20167;-83
2023/09/23 02:51:04;;;;;;;11.45;10.25;;;19.60;94.70;;;;;;6150843;23;20609;-82
2023/09/23 02:53:30;;;;;;;11.32;10.13;;;19.60;94.80;;;;;;6125053;23;20144;-83
2023/09/23 02:56:05;;;;;;;11.35;10.10;;;19.60;94.80;;;;;;6100835;23;20561;-83
2023/09/23 02:58:31;;;;;;;12.15;10.65;;;19.70;94.90;;;;;;6100759;23;20151;-80
2023/09/23 03:00:57;;;;;;;12.10;10.80;;;19.60;94.80;;;;;;6124777;23;20175;-84
2023/09/23 03:03:24;;;;;;;12.23;10.98;;;19.60;94.90;;;;;;6151028;23;20149;-83
2023/09/23 03:05:55;;;;;;;11.57;10.38;;;19.60;94.90;;;;;;6151040;23;20139;-82
2023/09/23 03:08:23;;;;;;;11.40;10.20;;;19.60;94.90;;;;;;6125155;23;20128;-84
2023/09/23 03:10:51;;;;;;;11.13;10.02;;;19.70;94.90;;;;;;6151292;23;20193;-81
2023/09/23 03:13:18;;;;;;;11.88;10.55;;;19.60;94.90;;;;;;6125700;23;20167;-83
2023/09/23 03:15:52;;;;;;;11.15;9.98;;;19.50;95.00;;;;;;6124822;23;20152;-82
2023/09/23 03:18:27;;;;;;;11.77;10.35;;;19.60;94.70;;;;;;6127074;23;20141;-82
2023/09/23 03:20:55;;;;;;;11.80;10.60;;;19.60;94.90;;;;;;6126961;23;20127;-84
2023/09/23 03:23:21;;;;;;;11.75;10.45;;;19.60;94.80;;;;;;6125210;23;20213;-84
2023/09/23 03:25:47;;;;;;;11.98;10.13;;;19.60;94.90;;;;;;6150556;23;20139;-83
2023/09/23 03:28:15;;;;;;;11.15;10.05;;;19.60;94.90;;;;;;6150257;22;20626;-81
2023/09/23 03:30:44;;;;;;;11.50;10.38;;;19.60;94.90;;;;;;6125166;23;20132;-84
2023/09/23 03:33:11;;;;;;;11.23;10.10;;;19.50;94.90;;;;;;6124832;23;20206;-84
2023/09/23 03:35:38;;;;;;;11.00;9.88;;;19.60;94.90;;;;;;6100713;23;20139;-81
2023/09/23 03:38:04;;;;;;;11.40;10.23;;;19.60;94.60;;;;;;6150347;22;20138;-84
2023/09/23 03:40:30;;;;;;;11.80;10.60;;;19.60;94.80;;;;;;6150916;23;20460;-85
2023/09/23 03:42:57;;;;;;;11.13;10.00;;;19.60;94.70;;;;;;6150874;23;20136;-84
2023/09/23 03:45:24;;;;;;;11.93;10.73;;;19.60;94.80;;;;;;6125556;23;20554;-85
2023/09/23 03:47:50;;;;;;;11.55;10.35;;;19.60;94.80;;;;;;6150814;23;20201;-82
2023/09/23 03:50:16;;;;;;;11.63;10.43;;;19.60;94.80;;;;;;6124934;23;20478;-80
2023/09/23 03:52:42;;;;;;;11.65;10.45;;;19.50;94.90;;;;;;6126084;23;20159;-81
2023/09/23 03:55:09;;;;;;;11.50;10.30;;;19.50;94.80;;;;;;6101385;23;20147;-81
2023/09/23 03:57:35;;;;;;;11.85;10.65;;;19.60;94.80;;;;;;6152097;23;20194;-83
2023/09/23 04:00:06;;;;;;;11.98;10.73;;;19.60;94.60;;;;;;6151989;23;20139;-81
2023/09/23 04:02:33;;;;;;;10.93;9.77;;;19.60;94.80;;;;;;6151708;23;20571;-84
2023/09/23 04:04:58;;;;;;;11.52;10.32;;;19.60;94.80;;;;;;6126371;23;20136;-80
2023/09/23 04:07:24;;;;;;;12.52;10.70;;;19.60;94.80;;;;;;6151858;23;20193;-82
2023/09/23 04:09:50;;;;;;;11.90;10.70;;;19.60;94.70;;;;;;6151013;23;20582;-84
2023/09/23 04:12:17;;;;;;;12.13;10.82;;;19.60;94.80;;;;;;6152012;23;20160;-83
2023/09/23 04:14:43;;;;;;;11.93;10.73;;;19.60;94.90;;;;;;6125312;23;20218;-85
2023/09/23 04:17:08;;;;;;;11.35;10.15;;;19.60;94.80;;;;;;6151949;23;20229;-83
2023/09/23 04:19:34;;;;;;;11.55;10.35;;;19.60;94.50;;;;;;6151820;23;20566;-83
2023/09/23 04:22:00;;;;;;;10.88;9.77;;;19.60;94.70;;;;;;6125455;23;20140;-85
2023/09/23 04:24:26;;;;;;;10.68;9.60;;;19.60;94.50;;;;;;6100536;23;20309;-84
2023/09/23 04:26:53;;;;;;;11.90;10.57;;;19.60;94.50;;;;;;6098821;22;20529;-81
2023/09/23 04:29:21;;;;;;;11.25;10.05;;;19.60;94.60;;;;;;6124345;23;20144;-84
2023/09/23 04:31:49;;;;;;;11.73;10.52;;;19.60;94.40;;;;;;6125493;23;20186;-85
2023/09/23 04:34:14;;;;;;;11.77;10.57;;;19.60;94.30;;;;;;6151722;23;20128;-83
2023/09/23 04:36:40;;;;;;;10.38;9.27;;;19.60;94.40;;;;;;6101149;23;20158;-84
2023/09/23 04:39:06;;;;;;;11.38;10.20;;;19.60;94.30;;;;;;6125859;23;20209;-83
2023/09/23 04:41:32;;;;;;;10.98;9.88;;;19.60;94.40;;;;;;6125848;23;20155;-81
2023/09/23 04:43:58;;;;;;;11.27;9.70;;;19.60;94.50;;;;;;6101670;23;20164;-82
2023/09/23 04:46:27;;;;;;;11.13;10.00;;;19.70;94.30;;;;;;6125817;23;20583;-83
2023/09/23 04:48:52;;;;;;;10.88;9.77;;;19.60;94.50;;;;;;6151481;23;20155;-81
2023/09/23 04:51:19;;;;;;;11.93;10.70;;;19.60;94.30;;;;;;6125469;23;20183;-85
2023/09/23 04:53:45;;;;;;;10.48;9.27;;;19.60;94.20;;;;;;6125613;23;20128;-84
2023/09/23 04:56:12;;;;;;;12.00;10.73;;;19.60;94.30;;;;;;6101368;23;20234;-85
2023/09/23 04:58:38;;;;;;;11.73;10.50;;;19.60;94.50;;;;;;6126267;23;20153;-81
2023/09/23 05:01:05;;;;;;;10.70;9.60;;;19.60;94.40;;;;;;6125792;23;20638;-83
2023/09/23 05:03:31;;;;;;;10.70;9.60;;;19.60;94.30;;;;;;6152344;22;20157;-81
2023/09/23 05:05:57;;;;;;;10.95;9.85;;;19.60;94.40;;;;;;6152053;22;20144;-81
2023/09/23 05:08:23;;;;;;;11.13;9.93;;;19.60;94.40;;;;;;6152425;22;20284;-82
2023/09/23 05:10:49;;;;;;;10.50;9.43;;;19.60;94.30;;;;;;6105633;23;20135;-82
2023/09/23 05:13:17;;;;;;;11.43;10.23;;;19.60;94.30;;;;;;6130029;23;20151;-84
2023/09/23 05:15:43;;;;;;;11.30;10.10;;;19.60;94.30;;;;;;6130096;23;20159;-82
2023/09/23 05:18:09;;;;;;;11.07;9.70;;;19.60;94.20;;;;;;6129427;23;20165;-82
2023/09/23 05:20:35;;;;;;;10.88;9.77;;;19.60;94.10;;;;;;6125408;23;20266;-84
2023/09/23 05:23:05;;;;;;;11.15;9.95;;;19.60;94.20;;;;;;6125464;23;20170;-81
2023/09/23 05:25:31;;;;;;;11.20;9.98;;;19.60;94.20;;;;;;6125601;23;20266;-83
2023/09/23 05:27:57;;;;;;;11.27;10.18;;;19.70;94.30;;;;;;6125469;23;20240;-82
2023/09/23 05:30:23;;;;;;;10.88;9.77;;;19.60;94.30;;;;;;6125559;23;20140;-83
2023/09/23 05:32:49;;;;;;;10.82;9.70;;;19.60;94.00;;;;;;6125316;23;20262;-83
2023/09/23 05:35:14;;;;;;;11.23;10.05;;;19.60;94.20;;;;;;6125605;23;20210;-85
2023/09/23 05:37:41;;;;;;;11.00;9.90;;;19.60;94.20;;;;;;6151270;23;20135;-83
2023/09/23 05:40:10;;;;;;;10.88;9.77;;;19.60;94.10;;;;;;6101510;23;20144;-83
2023/09/23 05:42:36;;;;;;;10.68;9.57;;;19.60;94.10;;;;;;6126337;23;20463;-86
2023/09/23 05:45:03;;;;;;;10.98;9.80;;;19.70;94.00;;;;;;6151636;22;20136;-83
2023/09/23 05:47:30;;;;;;;11.57;10.38;;;19.60;94.20;;;;;;6101786;23;20335;-82
2023/09/23 05:49:56;;;;;;;11.13;9.98;;;19.60;94.40;;;;;;6124597;23;20132;-83
2023/09/23 05:52:21;;;;;;;10.77;9.68;;;19.60;94.30;;;;;;6152068;23;20468;-81
2023/09/23 05:54:49;;;;;;;11.38;10.18;;;19.60;94.40;;;;;;6150797;22;20186;-84
2023/09/23 05:57:15;;;;;;;11.05;9.85;;;19.60;94.50;;;;;;6151265;23;20820;-83
2023/09/23 05:59:41;;;;;;;11.10;9.98;;;19.60;94.30;;;;;;6151322;22;20139;-82
2023/09/23 06:02:08;;;;;;;10.68;9.57;;;19.50;94.30;;;;;;6151288;22;20163;-84
2023/09/23 06:04:35;;;;;;;11.00;9.90;;;19.60;94.40;;;;;;6125749;23;20148;-82
2023/09/23 06:07:01;;;;;;;10.90;9.80;;;19.60;94.50;;;;;;6151441;22;20189;-84
2023/09/23 06:09:27;;;;;;;11.40;10.20;;;19.60;94.50;;;;;;6150732;22;20151;-82
2023/09/23 06:11:54;;;;;;;10.85;9.75;;;19.60;94.40;;;;;;6151567;23;20289;-84
2023/09/23 06:14:20;;;;;;;10.38;9.27;;;19.50;94.40;;;;;;6150269;22;20582;-84
2023/09/23 06:16:47;;;;;;;11.07;9.88;;;19.50;94.50;;;;;;6125408;23;20132;-82
2023/09/23 06:19:13;;;;;;;10.98;9.88;;;19.50;94.50;;;;;;6151337;22;20159;-81
2023/09/23 06:21:40;;;;;;;10.90;9.80;;;19.50;94.50;;;;;;6125886;23;20139;-84
2023/09/23 06:24:06;;;;;;;11.15;10.05;;;19.50;94.50;;;;;;6151970;22;20169;-85
2023/09/23 06:26:31;;;;;;;10.77;9.65;;;19.50;94.50;;;;;;6125081;23;20143;-82
2023/09/23 06:28:57;;;;;;;11.55;9.98;;;19.50;94.40;;;;;;6151248;22;20191;-84
2023/09/23 06:31:23;;;;;;;10.88;9.77;;;19.50;94.60;;;;;;6151127;22;20163;-82
2023/09/23 06:33:49;;;;;;;11.35;9.98;;;19.50;94.50;;;;;;6100929;23;20486;-81
2023/09/23 06:36:15;;;;;;;11.27;10.07;;;19.50;94.50;;;;;;6151378;22;20131;-84
2023/09/23 06:38:40;;;;;;;10.32;9.23;;;19.50;94.60;;;;;;6150752;23;20207;-83
2023/09/23 06:41:06;;;;;;;9.18;8.23;;;19.50;94.50;;;;;;6125700;23;20140;-82
2023/09/23 06:43:32;;;;;;;9.70;8.57;;;19.50;93.80;;;;;;6125180;23;20473;-81
2023/09/23 06:45:59;;;;;;;7.97;7.10;;;19.50;93.50;;;;;;6124965;23;20138;-83
2023/09/23 06:48:25;;;;;;;8.27;7.47;;;19.50;93.00;;;;;;6151367;22;20154;-85
2023/09/23 06:51:00;;;;;;;8.85;7.50;;;19.50;93.00;;;;;;6124485;23;20601;-82
2023/09/23 06:53:26;;;;;;;8.52;7.63;;;19.50;93.00;;;;;;6125130;23;20142;-84
2023/09/23 06:55:52;;;;;;;7.80;7.00;;;19.50;93.00;;;;;;6125515;23;20174;-85
2023/09/23 06:58:18;;;;;;;7.85;7.05;;;19.40;92.80;;;;;;6125015;23;20226;-84
2023/09/23 07:00:44;;;;;;;8.43;7.60;;;19.40;92.90;;;;;;6100707;23;20147;-81
2023/09/23 07:03:10;;;;;;;8.10;7.18;;;19.40;93.00;;;;;;6151215;22;20189;-84
2023/09/23 07:05:37;;;;;;;7.65;6.90;;;19.30;93.00;;;;;;6125108;23;20159;-86
2023/09/23 07:08:03;;;;;;;7.72;6.93;;;19.30;93.00;;;;;;6150307;22;20202;-83
2023/09/23 07:10:33;;;;;;;7.53;6.72;;;19.30;92.90;;;;;;6100813;23;20155;-82
2023/09/23 07:12:58;;;;;;;8.10;7.30;;;19.30;92.80;;;;;;6124653;23;20750;-82
2023/09/23 07:15:24;;;;;;;7.43;6.55;;;19.30;93.10;;;;;;6125131;23;20154;-82
2023/09/23 07:17:50;;;;;;;7.57;6.72;;;19.30;92.90;;;;;;6151005;22;20643;-82
2023/09/23 07:20:16;;;;;;;7.53;6.63;;;19.20;92.80;;;;;;6125008;23;20158;-80
2023/09/23 07:22:41;;;;;;;6.97;6.28;;;19.20;92.80;;;;;;6151350;22;20583;-80
2023/09/23 07:25:07;;;;;;;7.15;6.32;;;19.20;92.80;;;;;;6124694;23;20575;-83
2023/09/23 07:27:33;;;;;;;6.88;6.18;;;19.20;93.30;;;;;;6151127;22;20505;-82
2023/09/23 07:29:59;;;;;;;7.50;6.50;;;19.10;92.80;;;;;;6125031;23;20211;-84
2023/09/23 07:32:24;;;;;;;6.38;5.78;;;19.20;92.80;;;;;;6124954;23;20498;-83
2023/09/23 07:34:50;;;;;;;6.78;6.05;;;19.20;92.80;;;;;;6151132;22;20139;-82
2023/09/23 07:37:16;;;;;;;7.00;6.30;;;19.10;92.60;;;;;;6150625;23;20141;-84
2023/09/23 07:39:42;;;;;;;6.32;5.68;;;19.20;92.70;;;;;;6151188;22;20219;-84
2023/09/23 07:42:07;;;;;;;6.45;5.80;;;19.20;92.70;;;;;;6125079;23;20870;-81
2023/09/23 07:44:33;;;;;;;6.57;5.88;;;19.20;92.60;;;;;;6151052;22;20143;-83
2023/09/23 07:46:59;;;;;;;7.60;6.88;;;19.10;92.80;;;;;;6125154;23;20189;-83
2023/09/23 07:49:25;;;;;;;6.40;5.60;;;19.10;92.80;;;;;;6150548;22;20218;-83
2023/09/23 07:51:50;;;;;;;5.90;5.30;;;19.10;92.60;;;;;;6150650;22;20167;-84
2023/09/23 07:54:16;;;;;;;7.03;5.13;;;19.10;92.60;;;;;;6125273;23;20209;-83
2023/09/23 07:56:42;;;;;;;6.43;5.82;;;19.10;92.50;;;;;;6150740;22;20459;-82
2023/09/23 07:59:08;;;;;;;6.63;5.80;;;19.10;92.60;;;;;;6151094;23;20136;-81
2023/09/23 08:01:34;;;;;;;5.95;5.15;;;19.10;92.40;;;;;;6150473;22;20143;-82
2023/09/23 08:04:00;;;;;;;5.60;5.10;;;19.10;92.50;;;;;;6124474;23;20487;-82
2023/09/23 08:06:26;;;;;;;5.43;4.93;;;19.20;92.40;;;;;;6151119;22;20144;-83
2023/09/23 08:08:51;;;;;;;5.97;5.20;;;19.20;92.40;;;;;;6123644;23;20155;-84
2023/09/23 08:11:17;;;;;;;5.75;5.15;;;19.20;92.40;;;;;;6124373;23;20486;-84
2023/09/23 08:13:43;;;;;;;5.57;5.00;;;19.10;92.50;;;;;;6124373;23;20132;-81
2023/09/23 08:16:09;;;;;;;5.32;4.82;;;19.10;92.40;;;;;;6150925;22;20620;-81
2023/09/23 08:18:35;;;;;;;5.82;5.00;;;19.20;92.30;;;;;;6150583;22;20551;-84
2023/09/23 08:21:00;;;;;;;5.18;4.68;;;19.20;92.20;;;;;;6150547;22;20140;-82
2023/09/23 08:23:26;;;;;;;5.65;4.75;;;19.20;92.30;;;;;;6150731;22;20136;-84
2023/09/23 08:25:54;;;;;;;5.18;4.53;;;19.20;92.20;;;;;;6100129;23;20139;-83
2023/09/23 08:28:19;;;;;;;4.72;4.20;;;19.20;92.10;;;;;;6119407;23;20708;-82
2023/09/23 08:30:48;;;;;;;5.78;4.55;;;19.20;92.10;;;;;;6119369;23;20145;-80
2023/09/23 08:33:13;;;;;;;5.50;4.57;;;19.20;92.00;;;;;;6119273;23;20195;-84
2023/09/23 08:35:41;;;;;;;4.90;4.15;;;19.20;91.90;;;;;;6120897;23;20140;-83
2023/09/23 08:38:08;;;;;;;4.78;4.28;;;19.20;91.90;;;;;;6120731;23;20171;-85
2023/09/23 08:40:34;;;;;;;4.60;3.80;;;19.20;91.90;;;;;;6121222;23;20499;-82
2023/09/23 08:43:03;;;;;;;4.55;4.13;;;19.20;91.90;;;;;;6096399;23;20243;-81
2023/09/23 08:45:29;;;;;;;4.13;3.72;;;19.20;91.90;;;;;;6122334;23;20141;-84
2023/09/23 08:47:55;;;;;;;4.88;4.40;;;19.20;91.70;;;;;;6120837;23;20512;-84
2023/09/23 08:50:20;;;;;;;4.20;3.80;;;19.20;91.70;;;;;;6120566;23;20144;-83
2023/09/23 08:52:46;;;;;;;4.47;4.07;;;19.20;91.50;;;;;;6122175;23;20523;-82
2023/09/23 08:55:12;;;;;;;4.43;3.95;;;19.20;91.50;;;;;;6120744;23;20178;-83
2023/09/23 08:57:38;;;;;;;4.40;3.78;;;19.20;91.50;;;;;;6122064;23;20132;-81
2023/09/23 09:00:08;;;;;;;4.32;3.92;;;19.20;91.50;;;;;;6122389;23;20231;-85
2023/09/23 09:02:34;;;;;;;4.07;3.67;;;19.20;91.40;;;;;;6121902;23;20223;-82
2023/09/23 09:05:00;;;;;;;4.28;3.80;;;19.20;91.40;;;;;;6120708;23;20152;-83
2023/09/23 09:07:41;;;;;;;4.07;3.67;;;19.20;91.40;;;;;;6122187;23;20194;-84
2023/09/23 09:10:06;;;;;;;4.40;3.83;;;19.20;91.50;;;;;;6122201;23;20838;-84
2023/09/23 09:12:33;;;;;;;4.32;3.83;;;19.20;91.40;;;;;;6122436;23;20243;-83
2023/09/23 09:14:58;;;;;;;4.00;3.60;;;19.20;91.30;;;;;;6120546;23;20169;-83
2023/09/23 09:17:24;;;;;;;4.30;3.80;;;19.20;91.30;;;;;;6096278;23;20132;-83
2023/09/23 09:19:50;;;;;;;3.85;3.42;;;19.20;91.40;;;;;;6122588;23;20137;-83
2023/09/23 09:22:17;;;;;;;4.07;3.65;;;19.20;91.50;;;;;;6122005;23;20160;-84
2023/09/23 09:24:43;;;;;;;4.50;4.10;;;19.20;91.50;;;;;;6120105;23;20140;-81
2023/09/23 09:27:12;;;;;;;4.70;4.15;;;19.20;91.50;;;;;;6120295;22;20242;-84
2023/09/23 09:29:38;;;;;;;4.30;3.90;;;19.20;91.60;;;;;;6120975;23;20140;-81
2023/09/23 09:32:04;;;;;;;4.57;4.07;;;19.20;91.50;;;;;;6096357;23;20685;-81
2023/09/23 09:34:31;;;;;;;4.40;3.90;;;19.20;91.50;;;;;;6121631;23;20136;-84
2023/09/23 09:36:57;;;;;;;4.50;3.90;;;19.20;91.50;;;;;;6120298;23;20169;-84
2023/09/23 09:39:28;;;;;;;4.22;3.70;;;19.20;91.40;;;;;;6096107;23;20564;-85
2023/09/23 09:41:57;;;;;;;4.47;4.05;;;19.20;91.40;;;;;;6119954;23;20584;-83
2023/09/23 09:44:27;;;;;;;4.55;4.00;;;19.20;91.30;;;;;;6096335;23;20223;-84
2023/09/23 09:46:54;;;;;;;4.18;3.78;;;19.20;91.30;;;;;;6121928;23;20136;-84
2023/09/23 09:49:21;;;;;;;4.38;3.70;;;19.20;91.30;;;;;;6121001;23;20617;-84
2023/09/23 09:51:48;;;;;;;4.35;3.70;;;19.20;91.30;;;;;;6119896;23;20175;-83
2023/09/23 09:54:18;;;;;;;4.35;3.70;;;19.20;91.30;;;;;;6120325;23;20140;-85
2023/09/23 09:56:45;;;;;;;4.50;4.00;;;19.20;91.20;;;;;;6121785;23;20203;-84
2023/09/23 09:59:30;;;;;;;5.00;3.88;;;19.20;91.20;;;;;;6120175;23;20515;-81
2023/09/23 10:01:56;;;;;;;3.70;3.40;;;19.20;91.30;;;;;;6121444;23;20475;-84
2023/09/23 10:04:23;;;;;;;4.00;3.60;;;19.20;91.20;;;;;;6120283;23;20148;-84
2023/09/23 10:06:54;;;;;;;3.95;3.58;;;19.20;91.20;;;;;;6121619;23;20132;-85
2023/09/23 10:09:28;;;;;;;5.03;3.75;;;19.20;91.50;;;;;;6119476;23;20159;-83
2023/09/23 10:11:54;;;;;;;3.95;3.58;;;19.20;91.00;;;;;;6121414;23;20250;-83
2023/09/23 10:14:20;;;;;;;3.83;3.40;;;19.30;91.00;;;;;;6095312;23;20179;-81
2023/09/23 10:16:59;;;;;;;4.32;3.50;;;19.20;90.90;;;;;;6095898;23;20144;-80
2023/09/23 10:19:29;;;;;;;4.20;3.80;;;19.20;90.80;;;;;;6120493;23;20136;-83
2023/09/23 10:22:09;;;;;;;4.30;3.90;;;19.20;90.90;;;;;;6096042;23;20163;-81
2023/09/23 10:24:35;;;;;;;5.28;4.03;;;19.20;90.90;;;;;;6121668;23;20141;-79
2023/09/23 10:27:06;;;;;;;4.45;4.03;;;19.20;90.90;;;;;;6123155;23;20515;-82
2023/09/23 10:29:45;;;;;;;4.30;3.90;;;19.20;90.80;;;;;;6151216;22;20218;-83
2023/09/23 10:32:14;;;;;;;4.53;4.00;;;19.20;90.80;;;;;;6151042;22;20175;-81
2023/09/23 10:34:55;;;;;;;4.10;3.70;;;19.30;90.90;;;;;;6101252;23;20180;-80
2023/09/23 10:37:30;;;;;;;3.92;3.58;;;19.20;90.80;;;;;;6151075;23;20139;-79
2023/09/23 10:40:00;;;;;;;4.07;3.67;;;19.20;90.70;;;;;;6125792;23;20150;-82
2023/09/23 10:42:25;;;;;;;4.38;3.80;;;19.20;90.70;;;;;;6151561;22;20567;-80
2023/09/23 10:44:57;;;;;;;3.80;3.38;;;19.20;90.60;;;;;;6150728;22;20135;-84
2023/09/23 10:47:23;;;;;;;4.97;3.78;;;19.20;90.60;;;;;;6151156;23;20169;-82
2023/09/23 10:49:49;;;;;;;3.50;3.20;;;19.20;90.60;;;;;;6150671;22;20140;-81
2023/09/23 10:52:15;;;;;;;3.85;3.55;;;19.20;90.50;;;;;;6151117;22;20254;-81
2023/09/23 10:54:41;;;;;;;3.83;3.42;;;19.20;90.50;;;;;;6150816;22;20143;-79
2023/09/23 10:57:07;;;;;;;3.75;3.40;;;19.20;90.40;;;;;;6151191;22;20150;-84
2023/09/23 10:59:33;;;;;;;4.00;3.55;;;19.20;90.30;;;;;;6150828;22;20524;-81
2023/09/23 11:01:59;;;;;;;3.63;3.30;;;19.20;90.30;;;;;;6100871;23;20193;-78
2023/09/23 11:04:25;;;;;;;3.75;3.45;;;19.20;90.20;;;;;;6125067;23;20165;-81
2023/09/23 11:06:51;;;;;;;3.63;3.33;;;19.30;90.20;;;;;;6124808;23;20461;-80
2023/09/23 11:09:20;;;;;;;3.83;3.30;;;19.20;90.10;;;;;;6124350;23;20139;-84
2023/09/23 11:11:46;;;;;;;3.83;3.42;;;19.20;90.10;;;;;;6125578;23;20228;-82
2023/09/23 11:14:13;;;;;;;3.78;3.38;;;19.20;90.00;;;;;;6125272;23;20582;-81
2023/09/23 11:16:43;;;;;;;3.70;3.38;;;19.20;90.00;;;;;;6151480;22;20191;-82
2023/09/23 11:19:09;;;;;;;3.90;3.45;;;19.30;90.00;;;;;;6150822;23;20127;-82
2023/09/23 11:21:44;;;;;;;3.30;3.00;;;19.20;89.80;;;;;;6153142;22;20143;-82
2023/09/23 11:24:10;;;;;;;3.28;2.97;;;19.30;89.70;;;;;;6155176;23;20540;-82
2023/09/23 11:26:39;;;;;;;4.00;3.60;;;19.30;89.60;;;;;;6155457;22;20148;-80
2023/09/23 11:29:06;;;;;;;3.20;2.90;;;19.30;89.60;;;;;;6080464;23;20256;-79
2023/09/23 11:31:31;;;;;;;3.85;3.50;;;19.30;90.00;;;;;;6101546;23;20186;-84
2023/09/23 11:33:57;;;;;;;3.47;3.17;;;19.30;89.20;;;;;;6124723;23;20143;-82
2023/09/23 11:36:23;;;;;;;3.40;3.10;;;19.30;89.30;;;;;;6151028;22;20144;-82
2023/09/23 11:38:49;;;;;;;3.33;3.03;;;19.30;89.20;;;;;;6150427;22;20198;-79
2023/09/23 11:41:16;;;;;;;3.97;3.28;;;19.30;89.10;;;;;;6150545;22;20140;-79
2023/09/23 11:43:42;;;;;;;3.60;3.13;;;19.30;89.00;;;;;;6150644;23;20207;-82
2023/09/23 11:46:08;;;;;;;4.13;3.17;;;19.30;88.90;;;;;;6150773;22;20171;-80
2023/09/23 11:48:35;;;;;;;3.40;3.10;;;19.30;88.90;;;;;;6124692;23;20529;-80
2023/09/23 11:51:01;;;;;;;3.17;2.88;;;19.30;88.70;;;;;;6150410;22;20143;-81
2023/09/23 11:53:27;;;;;;;3.35;2.90;;;19.30;88.70;;;;;;6150470;23;20137;-81
2023/09/23 11:55:53;;;;;;;3.67;3.10;;;19.30;88.60;;;;;;6124830;23;20139;-84
2023/09/23 11:58:19;;;;;;;3.50;3.15;;;19.30;88.50;;;;;;6150586;22;20136;-82
2023/09/23 12:00:47;;;;;;;3.45;3.15;;;19.30;88.30;;;;;;6100025;23;20148;-82
2023/09/23 12:03:14;;;;;;;3.30;3.00;;;19.30;88.10;;;;;;6101288;23;20181;-81
2023/09/23 12:05:41;;;;;;;2.90;2.60;;;19.30;88.10;;;;;;6150973;22;20132;-83
2023/09/23 12:08:09;;;;;;;3.15;2.83;;;19.30;87.90;;;;;;6149789;23;20590;-81
2023/09/23 12:10:36;;;;;;;3.45;3.15;;;19.30;87.70;;;;;;6150449;23;20657;-81
2023/09/23 12:13:05;;;;;;;3.47;3.17;;;19.40;87.70;;;;;;6100810;23;20611;-83
2023/09/23 12:15:33;;;;;;;3.08;2.78;;;19.30;87.50;;;;;;6103191;23;20143;-81
2023/09/23 12:17:59;;;;;;;3.40;3.08;;;19.40;87.50;;;;;;6152061;22;20159;-84
2023/09/23 12:20:26;;;;;;;2.92;2.63;;;19.30;87.30;;;;;;6151991;22;20189;-82
2023/09/23 12:22:52;;;;;;;3.35;3.05;;;19.40;87.10;;;;;;6125848;23;20140;-81
2023/09/23 12:25:18;;;;;;;3.20;2.90;;;19.40;87.00;;;;;;6101195;23;20206;-81
2023/09/23 12:27:44;;;;;;;3.28;2.97;;;19.40;86.90;;;;;;6125513;23;20240;-84
2023/09/23 12:30:10;;;;;;;2.90;2.60;;;19.30;86.70;;;;;;6126076;23;20226;-79
2023/09/23 12:32:35;;;;;;;3.38;2.95;;;19.30;86.30;;;;;;6101886;23;20179;-81
2023/09/23 12:35:01;;;;;;;3.03;2.72;;;19.40;86.40;;;;;;6153057;22;20186;-82
2023/09/23 12:37:27;;;;;;;3.03;2.72;;;19.40;86.30;;;;;;6104504;23;20219;-82